Terminal Aerodrome Forecast
Issued by NWS Twin Cities, MN

Home | Current Version | Previous Version | Graphics & Text | Print | Product List | Glossary On
Versions: 1 2 3 4 5 6 7 8 9 10 11 12 13 14 15 16 17 18 19 20 21 22 23 24 25 26 27 28
000
FTUS43 KMPX 152340
TAFMSP
TAF
KMSP 152340Z 1600/1706 12009KT P6SM SCT200 BKN300
     FM160800 12007KT P6SM VCSH OVC090
     FM161000 12007KT P6SM VCSH OVC050
     FM161200 13007KT 5SM -SHRA BR OVC025
     FM161400 13009KT 5SM -SHRA BR OVC008
     FM161800 13009KT P6SM OVC020 PROB30 1623/1703 3SM TSRA BKN020CB
      OVC030=

USA.gov is the U.S. government's official web portal to all federal, state and local government web resources and services.